createdAt,value
2019-03-24T00:00:59.280Z,70.40
2019-03-24T00:01:59.258Z,70.92
2019-03-24T00:02:59.253Z,70.92
2019-03-24T00:03:59.238Z,70.84
2019-03-24T00:04:59.234Z,71.05
2019-03-24T00:05:59.217Z,70.84
2019-03-24T00:06:59.212Z,71.05
2019-03-24T00:07:59.226Z,71.01
2019-03-24T00:08:59.188Z,71.15
2019-03-24T00:09:59.188Z,71.42
2019-03-24T00:10:59.155Z,71.05
2019-03-24T00:11:59.156Z,71.05
2019-03-24T00:12:59.173Z,71.15
2019-03-24T00:13:59.130Z,71.77
2019-03-24T00:14:59.114Z,70.95
2019-03-24T00:15:59.117Z,71.46
2019-03-24T00:16:59.103Z,71.46
2019-03-24T00:17:59.094Z,71.49
2019-03-24T00:18:59.076Z,71.05
2019-03-24T00:19:59.065Z,71.05
2019-03-24T00:20:59.047Z,71.05
2019-03-24T00:23:15.569Z,71.25
2019-03-24T00:24:15.551Z,71.59
2019-03-24T00:25:15.542Z,71.46
2019-03-24T00:26:15.529Z,70.95
2019-03-24T00:27:15.519Z,70.95
2019-03-24T00:28:15.519Z,70.95
2019-03-24T00:29:15.499Z,70.95
2019-03-24T00:30:15.492Z,70.37
2019-03-24T00:31:15.477Z,70.88
2019-03-24T00:32:15.469Z,70.98
2019-03-24T00:33:15.464Z,70.88
2019-03-24T00:34:15.444Z,70.57
2019-03-24T00:35:15.446Z,70.64
2019-03-24T00:36:15.426Z,70.67
2019-03-24T00:37:15.412Z,70.47
2019-03-24T00:38:15.410Z,70.16
2019-03-24T00:39:15.392Z,70.06
2019-03-24T00:40:15.381Z,69.96
2019-03-24T00:41:15.383Z,69.96
2019-03-24T00:42:15.359Z,70.06
2019-03-24T00:43:15.361Z,69.55
2019-03-24T00:44:15.339Z,69.38
2019-03-24T00:45:15.328Z,69.55
2019-03-24T00:46:15.319Z,69.55
2019-03-24T00:47:15.303Z,69.24
2019-03-24T00:48:15.304Z,69.38
2019-03-24T00:49:15.282Z,69.55
2019-03-24T00:50:15.270Z,69.45
2019-03-24T00:51:15.262Z,68.73
2019-03-24T00:52:15.249Z,69.38
2019-03-24T00:53:15.251Z,69.38
2019-03-24T00:54:15.227Z,68.66
2019-03-24T00:55:15.216Z,68.97
2019-03-24T00:56:15.211Z,69.38
2019-03-24T00:57:15.196Z,69.34
2019-03-24T00:58:15.203Z,69.17
2019-03-24T00:59:15.172Z,69.38
2019-03-24T01:00:15.162Z,68.84
2019-03-24T01:01:15.153Z,69.27
2019-03-24T01:02:15.146Z,69.07
2019-03-24T01:03:15.154Z,68.46
2019-03-24T01:04:15.121Z,68.46
2019-03-24T01:05:15.108Z,68.46
2019-03-24T01:06:15.098Z,68.46
2019-03-24T01:07:15.088Z,69.17
2019-03-24T01:08:15.096Z,68.87
2019-03-24T01:09:15.068Z,69.07
2019-03-24T01:10:15.057Z,68.66
2019-03-24T01:11:15.047Z,68.97
2019-03-24T01:12:15.035Z,68.25
2019-03-24T01:13:15.034Z,68.25
2019-03-24T01:14:15.012Z,67.94
2019-03-24T01:15:15.019Z,68.25
2019-03-24T01:16:14.993Z,67.94
2019-03-24T01:17:14.984Z,67.97
2019-03-24T01:18:14.969Z,67.84
2019-03-24T01:19:14.981Z,68.08
2019-03-24T01:20:14.950Z,68.15
2019-03-24T01:21:14.939Z,67.77
2019-03-24T01:22:14.932Z,67.87
2019-03-24T01:23:14.925Z,67.46
2019-03-24T01:24:14.919Z,67.57
2019-03-24T01:25:14.895Z,67.57
2019-03-24T01:26:14.899Z,67.46
2019-03-24T01:27:14.874Z,67.05
2019-03-24T01:28:14.871Z,66.75
2019-03-24T01:29:14.864Z,66.64
2019-03-24T01:30:14.842Z,66.44
2019-03-24T01:31:14.832Z,66.88
2019-03-24T01:32:14.825Z,66.67
2019-03-24T01:33:14.813Z,66.78
2019-03-24T01:34:14.818Z,66.75
2019-03-24T01:35:14.790Z,66.85
2019-03-24T01:36:14.782Z,66.24
2019-03-24T01:37:14.770Z,66.67
2019-03-24T01:38:14.763Z,66.37
2019-03-24T01:39:14.756Z,66.57
2019-03-24T01:40:14.745Z,66.47
2019-03-24T01:41:14.725Z,66.37
2019-03-24T01:42:14.720Z,65.75
2019-03-24T01:43:14.713Z,65.86
2019-03-24T01:44:14.702Z,66.57
2019-03-24T01:45:14.684Z,66.57
2019-03-24T01:46:14.670Z,66.37
2019-03-24T01:47:14.662Z,66.16
2019-03-24T01:48:14.649Z,66.16
2019-03-24T01:49:14.654Z,66.19
2019-03-24T01:50:14.630Z,66.81
2019-03-24T01:51:14.621Z,66.98
2019-03-24T01:52:14.620Z,66.81
2019-03-24T01:53:14.597Z,66.91
2019-03-24T01:54:14.597Z,66.91
2019-03-24T01:55:14.575Z,67.43
2019-03-24T01:56:14.565Z,67.11
2019-03-24T01:57:14.557Z,67.32
2019-03-24T01:58:14.544Z,67.11
2019-03-24T01:59:14.541Z,66.71
2019-03-24T02:00:14.521Z,67.22
2019-03-24T02:01:14.513Z,66.84
2019-03-24T02:02:14.499Z,66.74
2019-03-24T02:03:14.494Z,67.05
2019-03-24T02:04:14.491Z,67.66
2019-03-24T02:05:14.471Z,67.66
2019-03-24T02:06:14.456Z,68.10
2019-03-24T02:07:14.450Z,67.90
2019-03-24T02:08:14.437Z,67.97
2019-03-24T02:09:14.443Z,68.00
2019-03-24T02:10:14.415Z,68.10
2019-03-24T02:11:14.407Z,68.41
2019-03-24T02:12:14.394Z,69.33
2019-03-24T02:13:14.422Z,68.82
2019-03-24T02:14:14.380Z,68.92
2019-03-24T02:15:14.366Z,68.62
2019-03-24T02:16:14.355Z,68.92
2019-03-24T02:17:14.339Z,69.33
2019-03-24T02:18:14.330Z,69.13
2019-03-24T02:19:14.327Z,68.92
2019-03-24T02:20:14.309Z,69.33
2019-03-24T02:21:14.301Z,69.02
2019-03-24T02:22:14.286Z,68.92
2019-03-24T02:23:14.275Z,68.92
2019-03-24T02:24:14.298Z,68.62
2019-03-24T02:25:14.259Z,68.92
2019-03-24T02:26:14.241Z,69.23
2019-03-24T02:27:14.231Z,69.02
2019-03-24T02:28:14.221Z,69.43
2019-03-24T02:29:14.224Z,69.43
2019-03-24T02:30:14.208Z,69.23
2019-03-24T02:31:14.187Z,68.72
2019-03-24T02:32:14.181Z,68.72
2019-03-24T02:33:14.174Z,68.92
2019-03-24T02:34:14.159Z,68.51
2019-03-24T02:35:14.162Z,68.54
2019-03-24T02:36:14.134Z,68.75
2019-03-24T02:37:14.128Z,68.54
2019-03-24T02:38:14.111Z,68.34
2019-03-24T02:39:14.102Z,68.85
2019-03-24T02:40:14.101Z,69.37
2019-03-24T02:41:14.082Z,68.65
2019-03-24T02:42:14.073Z,68.96
2019-03-24T02:43:14.060Z,68.65
2019-03-24T02:44:14.048Z,68.34
2019-03-24T02:45:14.047Z,67.93
2019-03-24T02:46:24.254Z,67.72
2019-03-24T02:47:15.018Z,68.27
2019-03-24T02:48:14.015Z,68.65
2019-03-24T02:49:13.994Z,68.13
2019-03-24T02:50:13.993Z,67.72
2019-03-24T02:51:13.975Z,67.93
2019-03-24T02:52:13.962Z,67.96
2019-03-24T02:53:13.951Z,68.06
2019-03-24T02:54:13.941Z,67.96
2019-03-24T02:55:13.949Z,67.86
2019-03-24T02:56:13.933Z,67.86
2019-03-24T02:57:13.913Z,68.06
2019-03-24T02:58:13.897Z,67.96
2019-03-24T02:59:13.893Z,67.96
2019-03-24T03:00:13.906Z,68.06
2019-03-24T03:01:13.867Z,67.96
2019-03-24T03:02:13.859Z,67.58
2019-03-24T03:03:13.859Z,67.89
2019-03-24T03:04:13.832Z,67.96
2019-03-24T03:05:13.832Z,67.65
2019-03-24T03:06:13.813Z,68.40
2019-03-24T03:07:13.800Z,68.06
2019-03-24T03:08:13.797Z,67.68
2019-03-24T03:09:13.869Z,67.68
2019-03-24T03:10:13.781Z,68.10
2019-03-24T03:11:13.765Z,67.99
2019-03-24T03:12:13.748Z,67.99
2019-03-24T03:13:13.741Z,68.10
2019-03-24T03:14:13.727Z,68.10
2019-03-24T03:15:13.724Z,68.33
2019-03-24T03:16:13.704Z,68.64
2019-03-24T03:17:13.696Z,68.74
2019-03-24T03:18:13.684Z,68.13
2019-03-24T03:19:13.673Z,67.92
2019-03-24T03:20:13.672Z,67.92
2019-03-24T03:21:13.649Z,68.64
2019-03-24T03:22:13.640Z,68.13
2019-03-24T03:23:13.635Z,68.13
2019-03-24T03:24:13.620Z,68.43
2019-03-24T03:25:13.630Z,68.54
2019-03-24T03:26:13.596Z,68.54
2019-03-24T03:27:13.587Z,68.13
2019-03-24T03:28:13.577Z,68.26
2019-03-24T03:29:13.564Z,68.57
2019-03-24T03:30:13.564Z,68.77
2019-03-24T03:31:13.575Z,68.67
2019-03-24T03:32:13.535Z,69.09
2019-03-24T03:33:13.538Z,68.77
2019-03-24T03:34:13.537Z,68.54
2019-03-24T03:35:13.500Z,68.88
2019-03-24T03:36:13.509Z,68.77
2019-03-24T03:37:13.480Z,69.29
2019-03-24T03:38:13.469Z,69.49
2019-03-24T03:39:13.485Z,68.98
2019-03-24T03:40:13.448Z,69.18
2019-03-24T03:41:13.449Z,68.05
2019-03-24T03:42:13.431Z,68.16
2019-03-24T03:43:13.418Z,68.26
2019-03-24T03:44:13.406Z,68.46
2019-03-24T03:45:13.401Z,69.29
2019-03-24T03:46:13.393Z,68.05
2019-03-24T03:47:13.373Z,68.77
2019-03-24T03:48:13.364Z,68.16
2019-03-24T03:49:13.354Z,68.05
2019-03-24T03:50:13.337Z,68.77
2019-03-24T03:51:13.339Z,68.67
2019-03-24T03:52:13.363Z,68.46
2019-03-24T03:53:13.314Z,69.60
2019-03-24T03:54:13.296Z,68.88
2019-03-24T03:55:13.288Z,68.57
2019-03-24T03:56:13.285Z,69.60
2019-03-24T03:57:13.264Z,68.26
2019-03-24T03:58:13.259Z,68.98
2019-03-24T03:59:13.245Z,68.98
2019-03-24T04:00:13.233Z,68.57
2019-03-24T04:01:13.232Z,68.88
2019-03-24T04:02:13.210Z,68.46
2019-03-24T04:03:13.203Z,67.95
2019-03-24T04:04:13.190Z,68.26
2019-03-24T04:05:13.178Z,68.08
2019-03-24T04:06:13.180Z,68.60
2019-03-24T04:07:13.157Z,68.70
2019-03-24T04:08:13.151Z,68.70
2019-03-24T04:09:13.142Z,68.50
2019-03-24T04:10:13.127Z,68.40
2019-03-24T04:11:13.123Z,68.40
2019-03-24T04:12:13.102Z,68.50
2019-03-24T04:13:13.094Z,68.60
2019-03-24T04:14:13.081Z,68.80
2019-03-24T04:15:13.078Z,68.80
2019-03-24T04:16:13.077Z,69.18
2019-03-24T04:17:13.051Z,69.70
2019-03-24T04:18:13.041Z,68.91
2019-03-24T04:19:13.056Z,69.18
2019-03-24T04:20:13.018Z,69.29
2019-03-24T04:21:13.020Z,69.01
2019-03-24T04:22:12.997Z,69.63
2019-03-24T04:23:12.992Z,69.53
2019-03-24T04:24:12.978Z,69.63
2019-03-24T04:25:12.973Z,69.12
2019-03-24T04:26:12.966Z,69.53
2019-03-24T04:27:12.943Z,68.91
2019-03-24T04:28:12.932Z,69.12
2019-03-24T04:29:12.930Z,69.63
2019-03-24T04:30:12.913Z,69.63
2019-03-24T04:31:12.926Z,69.73
2019-03-24T04:32:12.889Z,69.53
2019-03-24T04:33:12.876Z,69.84
2019-03-24T04:34:12.877Z,69.22
2019-03-24T04:35:12.860Z,69.84
2019-03-24T04:36:12.855Z,69.66
2019-03-24T04:37:12.836Z,69.87
2019-03-24T04:38:12.829Z,69.87
2019-03-24T04:39:12.820Z,69.97
2019-03-24T04:40:12.803Z,70.18
2019-03-24T04:41:12.815Z,70.18
2019-03-24T04:42:12.782Z,69.63
2019-03-24T04:43:12.777Z,70.28
2019-03-24T04:44:12.759Z,70.18
2019-03-24T04:45:12.748Z,69.66
2019-03-24T04:46:12.741Z,69.97
2019-03-24T04:47:16.834Z,70.38
2019-03-24T04:48:12.718Z,70.28
2019-03-24T04:49:12.725Z,70.48
2019-03-24T04:50:12.695Z,69.97
2019-03-24T04:51:12.685Z,69.97
2019-03-24T04:52:12.684Z,70.48
2019-03-24T04:53:12.666Z,70.28
2019-03-24T04:54:12.659Z,69.87
2019-03-24T04:55:12.643Z,70.28
2019-03-24T04:56:12.632Z,69.97
2019-03-24T04:57:12.633Z,69.66
2019-03-24T04:58:12.609Z,70.28
2019-03-24T04:59:12.604Z,70.38
2019-03-24T05:00:12.595Z,70.07
2019-03-24T05:01:12.580Z,69.66
2019-03-24T05:02:12.578Z,70.38
2019-03-24T05:03:12.557Z,70.69
2019-03-24T05:04:12.547Z,70.38
2019-03-24T05:05:12.543Z,70.38
2019-03-24T05:06:13.301Z,69.76
2019-03-24T05:07:12.528Z,70.38
2019-03-24T05:08:12.506Z,70.59
2019-03-24T05:09:12.496Z,70.69
2019-03-24T05:10:12.485Z,70.48
2019-03-24T05:11:12.472Z,70.28
2019-03-24T05:12:12.477Z,70.83
2019-03-24T05:13:12.452Z,70.18
2019-03-24T05:14:12.440Z,70.93
2019-03-24T05:15:12.428Z,70.93
2019-03-24T05:16:12.418Z,71.44
2019-03-24T05:17:12.417Z,71.03
2019-03-24T05:18:12.403Z,71.55
2019-03-24T05:19:12.386Z,71.55
2019-03-24T05:20:12.377Z,70.83
2019-03-24T05:21:12.363Z,71.03
2019-03-24T05:22:12.366Z,71.03
2019-03-24T05:23:12.349Z,71.55
2019-03-24T05:24:12.334Z,71.44
2019-03-24T05:25:12.325Z,71.34
2019-03-24T05:26:12.311Z,71.44
2019-03-24T05:27:12.310Z,71.24
2019-03-24T05:28:12.290Z,71.14
2019-03-24T05:29:12.276Z,71.14
2019-03-24T05:30:12.268Z,71.34
2019-03-24T05:31:12.256Z,71.34
2019-03-24T05:32:12.260Z,71.75
2019-03-24T05:33:12.238Z,71.55
2019-03-24T05:34:12.224Z,71.75
2019-03-24T05:35:12.213Z,71.44
2019-03-24T05:36:12.201Z,71.34
2019-03-24T05:37:12.202Z,70.93
2019-03-24T05:38:12.181Z,71.14
2019-03-24T05:39:12.171Z,70.52
2019-03-24T05:40:12.160Z,70.69
2019-03-24T05:41:12.149Z,70.83
2019-03-24T05:42:12.149Z,70.72
2019-03-24T05:43:12.131Z,70.21
2019-03-24T05:44:12.117Z,69.76
2019-03-24T05:45:12.107Z,70.07
2019-03-24T05:46:12.098Z,69.97
2019-03-24T05:47:12.097Z,69.97
2019-03-24T05:48:12.073Z,69.46
2019-03-24T05:49:12.062Z,69.87
2019-03-24T05:50:12.051Z,69.87
2019-03-24T05:51:12.043Z,69.76
2019-03-24T05:52:12.043Z,69.76
2019-03-24T05:53:12.025Z,69.56
2019-03-24T05:54:12.017Z,69.79
2019-03-24T05:55:12.002Z,70.07
2019-03-24T05:56:11.991Z,69.76
2019-03-24T05:57:11.983Z,69.87
2019-03-24T05:58:11.981Z,69.56
2019-03-24T05:59:11.956Z,68.91
2019-03-24T06:00:11.947Z,69.22
2019-03-24T06:01:11.935Z,69.22
2019-03-24T06:02:11.927Z,69.22
2019-03-24T06:03:11.928Z,68.80
2019-03-24T06:04:11.906Z,69.42
2019-03-24T06:05:11.895Z,68.77
2019-03-24T06:06:11.887Z,69.49
2019-03-24T06:07:11.872Z,68.26
2019-03-24T06:08:11.872Z,68.57
2019-03-24T06:09:11.849Z,68.16
2019-03-24T06:10:11.843Z,67.85
2019-03-24T06:11:11.831Z,68.46
2019-03-24T06:12:11.817Z,68.26
2019-03-24T06:13:11.819Z,67.85
2019-03-24T06:14:11.796Z,67.82
2019-03-24T06:15:11.786Z,67.41
2019-03-24T06:16:11.777Z,67.82
2019-03-24T06:17:11.764Z,66.79
2019-03-24T06:18:11.767Z,66.79
2019-03-24T06:19:11.743Z,66.79
2019-03-24T06:20:11.732Z,67.00
2019-03-24T06:21:11.723Z,66.96
2019-03-24T06:22:11.708Z,65.73
2019-03-24T06:23:20.375Z,66.96
2019-03-24T06:24:11.710Z,66.76
2019-03-24T06:25:11.681Z,66.31
2019-03-24T06:26:11.667Z,66.35
2019-03-24T06:27:11.656Z,66.31
2019-03-24T06:28:11.655Z,66.31
2019-03-24T06:29:11.645Z,65.70
2019-03-24T06:30:11.630Z,65.91
2019-03-24T06:31:11.612Z,65.67
2019-03-24T06:32:11.603Z,65.44
2019-03-24T06:33:11.609Z,65.47
2019-03-24T06:34:11.585Z,65.54
2019-03-24T06:35:11.580Z,64.10
2019-03-24T06:36:11.564Z,64.20
2019-03-24T06:37:11.550Z,64.31
2019-03-24T06:38:11.546Z,64.38
2019-03-24T06:39:11.526Z,63.15
2019-03-24T06:40:11.518Z,63.97
2019-03-24T06:41:11.507Z,63.22
2019-03-24T06:42:11.494Z,63.56
2019-03-24T06:43:11.546Z,62.54
2019-03-24T06:44:11.476Z,63.56
2019-03-24T06:45:11.464Z,62.81
2019-03-24T06:46:11.453Z,63.25
2019-03-24T06:47:11.441Z,63.02
2019-03-24T06:48:11.443Z,62.61
2019-03-24T06:49:11.427Z,62.61
2019-03-24T06:50:11.409Z,62.40
2019-03-24T06:51:11.405Z,61.89
2019-03-24T06:52:11.390Z,62.19
2019-03-24T06:53:11.430Z,62.30
2019-03-24T06:54:11.365Z,62.40
2019-03-24T06:55:11.355Z,62.17
2019-03-24T06:56:11.343Z,62.37
2019-03-24T06:57:11.342Z,62.27
2019-03-24T06:58:11.354Z,62.27
2019-03-24T06:59:11.312Z,61.55
2019-03-24T07:00:11.304Z,61.25
2019-03-24T07:01:11.289Z,60.94
2019-03-24T07:02:11.280Z,61.15
2019-03-24T07:03:11.272Z,61.15
2019-03-24T07:04:11.265Z,60.71
2019-03-24T07:05:11.247Z,60.81
2019-03-24T07:06:11.242Z,61.32
2019-03-24T07:07:11.227Z,60.27
2019-03-24T07:08:11.216Z,59.76
2019-03-24T07:09:11.213Z,59.96
2019-03-24T07:10:11.193Z,59.35
2019-03-24T07:11:13.641Z,59.83
2019-03-24T07:12:11.170Z,59.35
2019-03-24T07:13:11.157Z,59.32
2019-03-24T07:14:11.174Z,58.40
2019-03-24T07:15:11.138Z,59.12
2019-03-24T07:16:11.139Z,58.20
2019-03-24T07:17:11.114Z,57.79
2019-03-24T07:18:11.106Z,57.58
2019-03-24T07:19:11.103Z,57.25
2019-03-24T07:20:11.084Z,58.20
2019-03-24T07:21:11.071Z,58.48
2019-03-24T07:22:11.062Z,57.45
2019-03-24T07:23:11.050Z,57.56
2019-03-24T07:24:11.053Z,57.35
2019-03-24T07:25:11.036Z,57.32
2019-03-24T07:26:11.019Z,55.92
2019-03-24T07:27:11.008Z,55.99
2019-03-24T07:28:10.998Z,56.10
2019-03-24T07:29:10.997Z,55.56
2019-03-24T07:30:10.977Z,56.07
2019-03-24T07:31:10.972Z,56.04
2019-03-24T07:32:10.954Z,54.72
2019-03-24T07:33:10.946Z,55.20
2019-03-24T07:34:10.943Z,55.10
2019-03-24T07:35:10.926Z,54.79
2019-03-24T07:36:10.919Z,54.26
2019-03-24T07:37:10.902Z,54.41
2019-03-24T07:38:10.890Z,53.37
2019-03-24T07:39:10.892Z,51.69
2019-03-24T07:40:10.874Z,50.67
2019-03-24T07:41:10.863Z,51.18
2019-03-24T07:42:10.846Z,50.14
2019-03-24T07:43:10.837Z,50.04
2019-03-24T07:44:10.839Z,50.24
2019-03-24T07:45:10.820Z,50.12
2019-03-24T07:46:10.803Z,50.24
2019-03-24T07:47:10.800Z,50.62
2019-03-24T07:48:18.661Z,50.12
2019-03-24T07:49:11.784Z,49.10
2019-03-24T07:50:10.759Z,48.22
2019-03-24T07:51:10.753Z,48.22
2019-03-24T07:52:10.739Z,48.72
2019-03-24T07:53:11.172Z,48.18
2019-03-24T07:54:10.730Z,47.67
2019-03-24T07:55:10.706Z,47.14
2019-03-24T07:56:10.702Z,46.48
2019-03-24T07:57:10.694Z,44.98
2019-03-24T07:58:10.675Z,43.12
2019-03-24T07:59:10.682Z,43.02
2019-03-24T08:00:10.659Z,42.49
2019-03-24T08:01:10.641Z,41.97
2019-03-24T08:02:10.634Z,40.52
2019-03-24T08:03:10.620Z,39.15
2019-03-24T08:04:10.635Z,38.93
2019-03-24T08:05:10.599Z,37.79
2019-03-24T08:06:11.404Z,37.35
2019-03-24T08:07:10.604Z,36.21
2019-03-24T08:08:11.361Z,35.78
2019-03-24T08:09:10.559Z,35.88
2019-03-24T08:10:10.562Z,36.28
2019-03-24T08:11:10.543Z,35.56
2019-03-24T08:12:10.566Z,33.84
2019-03-24T08:13:10.643Z,34.89
2019-03-24T08:14:10.504Z,34.23
2019-03-24T08:15:10.502Z,34.12
2019-03-24T08:16:10.482Z,34.44
2019-03-24T08:17:10.472Z,35.64
2019-03-24T08:18:10.466Z,34.56
2019-03-24T08:19:10.468Z,34.67
2019-03-24T08:20:12.337Z,34.66
2019-03-24T08:21:10.431Z,35.11
2019-03-24T08:22:11.370Z,35.53
2019-03-24T08:23:10.417Z,35.85
2019-03-24T08:24:10.399Z,36.49
2019-03-24T08:25:10.403Z,37.29
2019-03-24T08:26:10.377Z,37.39
2019-03-24T08:27:10.365Z,37.19
2019-03-24T08:28:10.358Z,35.77
2019-03-24T08:29:10.345Z,35.44
2019-03-24T08:30:10.348Z,36.75
2019-03-24T08:31:10.324Z,35.97
2019-03-24T08:32:10.313Z,35.46
2019-03-24T08:33:10.302Z,35.77
2019-03-24T08:34:10.296Z,35.38
2019-03-24T08:35:10.292Z,35.90
2019-03-24T08:36:10.269Z,36.18
2019-03-24T08:37:10.258Z,37.41
2019-03-24T08:38:10.248Z,37.12
2019-03-24T08:39:10.238Z,37.95
2019-03-24T08:40:10.241Z,38.45
2019-03-24T08:41:10.219Z,38.05
2019-03-24T08:42:10.221Z,36.27
2019-03-24T08:43:10.195Z,36.18
2019-03-24T08:44:10.185Z,34.54
2019-03-24T08:45:10.190Z,34.21
2019-03-24T08:46:10.165Z,33.26
2019-03-24T08:47:10.156Z,32.15
2019-03-24T08:48:10.144Z,31.96
2019-03-24T08:49:10.133Z,32.24
2019-03-24T08:50:10.131Z,32.12
2019-03-24T08:51:10.119Z,31.81
2019-03-24T08:52:10.099Z,30.27
2019-03-24T08:53:10.089Z,30.77
2019-03-24T08:54:10.078Z,30.05
2019-03-24T08:55:10.092Z,30.12
2019-03-24T08:56:10.098Z,29.64
2019-03-24T08:57:10.047Z,30.07
2019-03-24T08:58:10.040Z,29.27
2019-03-24T08:59:10.030Z,30.98
2019-03-24T09:00:10.031Z,30.08
2019-03-24T09:01:10.014Z,30.19
2019-03-24T09:02:09.994Z,31.43
2019-03-24T09:03:10.149Z,31.82
2019-03-24T09:04:09.976Z,30.93
2019-03-24T09:05:09.989Z,31.76
2019-03-24T09:06:09.955Z,32.15
2019-03-24T09:07:09.944Z,32.56
2019-03-24T09:08:09.933Z,32.89
2019-03-24T09:09:09.938Z,33.00
2019-03-24T09:10:09.913Z,33.02
2019-03-24T09:11:09.956Z,33.74
2019-03-24T09:12:09.891Z,34.66
2019-03-24T09:13:09.880Z,34.67
2019-03-24T09:14:09.872Z,34.49
2019-03-24T09:15:09.860Z,35.50
2019-03-24T09:16:09.877Z,35.90
2019-03-24T09:17:09.848Z,34.69
2019-03-24T09:18:09.827Z,34.99
2019-03-24T09:19:09.818Z,34.79
2019-03-24T09:20:09.812Z,34.69
2019-03-24T09:21:09.811Z,35.80
2019-03-24T09:22:09.786Z,35.80
2019-03-24T09:23:10.717Z,34.89
2019-03-24T09:24:09.761Z,34.19
2019-03-24T09:25:09.757Z,34.89
2019-03-24T09:26:09.753Z,34.89
2019-03-24T09:27:09.732Z,34.98
2019-03-24T09:28:09.720Z,33.15
2019-03-24T09:29:09.710Z,33.12
2019-03-24T09:30:09.697Z,34.02
2019-03-24T09:31:09.702Z,33.61
2019-03-24T09:32:09.677Z,34.58
2019-03-24T09:33:09.676Z,33.07
2019-03-24T09:34:09.665Z,33.28
2019-03-24T09:35:09.647Z,32.27
2019-03-24T09:36:09.645Z,30.95
2019-03-24T09:37:09.631Z,31.85
2019-03-24T09:38:09.618Z,32.06
2019-03-24T09:39:09.604Z,31.85
2019-03-24T09:40:09.591Z,32.56
2019-03-24T09:41:09.589Z,32.96
2019-03-24T09:42:10.402Z,31.56
2019-03-24T09:43:09.560Z,31.26
2019-03-24T09:44:09.548Z,30.65
2019-03-24T09:45:09.539Z,30.15
2019-03-24T09:46:09.542Z,30.95
2019-03-24T09:47:09.518Z,30.15
2019-03-24T09:48:09.507Z,30.55
2019-03-24T09:49:09.498Z,31.14
2019-03-24T09:50:09.487Z,31.74
2019-03-24T09:51:09.482Z,31.84
2019-03-24T09:52:09.465Z,30.32
2019-03-24T09:53:09.456Z,29.22
2019-03-24T09:54:09.445Z,29.52
2019-03-24T09:55:09.436Z,30.11
2019-03-24T09:56:09.430Z,29.51
2019-03-24T09:57:09.412Z,29.19
2019-03-24T09:58:09.401Z,29.19
2019-03-24T09:59:09.407Z,29.39
2019-03-24T10:00:09.384Z,30.40
2019-03-24T10:01:09.378Z,29.99
2019-03-24T10:02:09.357Z,29.10
2019-03-24T10:03:09.348Z,30.40
2019-03-24T10:04:09.342Z,29.31
2019-03-24T10:05:09.333Z,29.01
2019-03-24T10:06:09.331Z,30.02
2019-03-24T10:07:09.304Z,30.32
2019-03-24T10:08:09.298Z,31.26
2019-03-24T10:09:09.283Z,31.46
2019-03-24T10:10:09.270Z,29.97
2019-03-24T10:11:09.274Z,31.47
2019-03-24T10:12:09.256Z,32.17
2019-03-24T10:13:09.244Z,31.07
2019-03-24T10:14:09.331Z,29.21
2019-03-24T10:15:09.225Z,27.66
2019-03-24T10:16:09.265Z,28.91
2019-03-24T10:17:09.215Z,27.79
2019-03-24T10:18:09.204Z,24.59
2019-03-24T10:19:14.075Z,25.27
2019-03-24T10:20:10.168Z,24.95
2019-03-24T10:21:09.157Z,24.44
2019-03-24T10:22:09.159Z,24.53
2019-03-24T10:23:09.162Z,23.14
2019-03-24T10:24:09.148Z,24.01
2019-03-24T10:25:09.117Z,23.39
2019-03-24T10:26:09.131Z,22.78
2019-03-24T10:27:09.109Z,24.36
2019-03-24T10:28:09.083Z,22.89
2019-03-24T10:29:09.081Z,22.50
2019-03-24T10:30:09.128Z,22.48
2019-03-24T10:31:09.079Z,20.97
2019-03-24T10:32:09.077Z,20.25
2019-03-24T10:33:09.036Z,20.54
2019-03-24T10:34:09.051Z,21.31
2019-03-24T10:35:09.028Z,19.72
2019-03-24T10:36:09.130Z,19.70
2019-03-24T10:37:09.010Z,19.38
2019-03-24T10:38:08.999Z,18.70
2019-03-24T10:39:08.976Z,19.20
2019-03-24T10:40:08.977Z,17.83
2019-03-24T10:41:09.018Z,19.34
2019-03-24T10:42:08.992Z,18.83
2019-03-24T10:43:08.941Z,18.61
2019-03-24T10:44:08.951Z,17.30
2019-03-24T10:45:08.919Z,18.09
2019-03-24T10:46:08.908Z,17.88
2019-03-24T10:47:08.914Z,17.00
2019-03-24T10:48:08.886Z,16.60
2019-03-24T10:49:08.884Z,15.80
2019-03-24T10:50:08.867Z,17.18
2019-03-24T10:51:08.860Z,16.88
2019-03-24T10:52:08.859Z,15.50
2019-03-24T10:53:08.846Z,15.89
2019-03-24T10:54:08.829Z,15.78
2019-03-24T10:55:08.828Z,15.19
2019-03-24T10:56:08.815Z,15.30
2019-03-24T10:57:08.845Z,15.20
2019-03-24T10:58:08.792Z,16.08
2019-03-24T10:59:08.784Z,15.60
2019-03-24T11:00:08.769Z,16.02
2019-03-24T11:01:08.762Z,17.22
2019-03-24T11:02:08.766Z,17.03
2019-03-24T11:03:08.747Z,16.83
2019-03-24T11:04:08.732Z,18.51
2019-03-24T11:05:08.729Z,16.55
2019-03-24T11:06:08.713Z,16.95
2019-03-24T11:07:09.078Z,16.56
2019-03-24T11:08:08.703Z,17.57
2019-03-24T11:09:08.683Z,17.97
2019-03-24T11:10:08.686Z,18.18
2019-03-24T11:11:08.678Z,18.38
2019-03-24T11:12:08.660Z,17.40
2019-03-24T11:13:08.654Z,18.08
2019-03-24T11:14:08.652Z,18.27
2019-03-24T11:15:08.651Z,16.71
2019-03-24T11:16:08.615Z,17.59
2019-03-24T11:17:08.624Z,18.56
2019-03-24T11:18:08.623Z,17.46
2019-03-24T11:19:08.590Z,17.75
2019-03-24T11:20:08.593Z,15.67
2019-03-24T11:21:08.942Z,16.64
2019-03-24T11:22:08.558Z,16.54
2019-03-24T11:23:08.587Z,17.03
2019-03-24T11:24:08.539Z,17.24
2019-03-24T11:25:08.527Z,17.33
2019-03-24T11:26:08.530Z,17.64
2019-03-24T11:27:08.507Z,18.14
2019-03-24T11:28:08.513Z,17.85
2019-03-24T11:29:08.498Z,15.76
2019-03-24T11:30:08.486Z,16.95
2019-03-24T11:31:08.473Z,15.97
2019-03-24T11:32:08.473Z,16.36
2019-03-24T11:33:08.476Z,15.99
2019-03-24T11:34:08.444Z,16.00
2019-03-24T11:35:08.438Z,16.69
2019-03-24T11:36:08.423Z,16.78
2019-03-24T11:37:08.413Z,15.89
2019-03-24T11:38:08.424Z,17.57
2019-03-24T11:39:08.391Z,15.79
2019-03-24T11:40:08.394Z,15.98
2019-03-24T11:41:08.379Z,15.77
2019-03-24T11:42:08.377Z,14.76
2019-03-24T11:43:08.365Z,15.16
2019-03-24T11:44:08.352Z,14.06
2019-03-24T11:45:08.340Z,14.73
2019-03-24T11:46:08.328Z,13.93
2019-03-24T11:47:08.344Z,15.10
2019-03-24T11:48:08.339Z,14.60
2019-03-24T11:49:08.304Z,13.22
2019-03-24T11:50:08.296Z,14.11
2019-03-24T11:51:08.281Z,13.21
2019-03-24T11:52:08.277Z,14.67
2019-03-24T11:53:08.275Z,13.79
2019-03-24T11:54:08.256Z,12.93
2019-03-24T11:55:08.255Z,14.24
2019-03-24T11:56:08.236Z,14.27
2019-03-24T11:57:08.238Z,14.89
2019-03-24T11:58:08.229Z,15.32
2019-03-24T11:59:08.211Z,15.94
2019-03-24T12:00:08.274Z,17.85
2019-03-24T12:01:08.201Z,16.16
2019-03-24T12:02:08.180Z,15.75
2019-03-24T12:03:08.182Z,15.44
2019-03-24T12:04:08.165Z,15.64
2019-03-24T12:05:08.152Z,15.35
2019-03-24T12:06:14.363Z,16.06
2019-03-24T12:07:09.145Z,17.65
2019-03-24T12:08:08.136Z,17.47
2019-03-24T12:09:08.112Z,18.58
2019-03-24T12:10:08.118Z,16.77
2019-03-24T12:11:08.093Z,17.17
2019-03-24T12:12:08.088Z,17.09
2019-03-24T12:13:08.102Z,18.39
2019-03-24T12:14:08.070Z,18.99
2019-03-24T12:15:08.102Z,18.05
2019-03-24T12:16:08.053Z,16.77
2019-03-24T12:17:08.035Z,17.27
2019-03-24T12:18:08.036Z,19.49
2019-03-24T12:19:08.019Z,19.72
2019-03-24T12:20:08.005Z,19.32
2019-03-24T12:21:08.000Z,20.94
2019-03-24T12:22:07.990Z,21.00
2019-03-24T12:23:07.974Z,20.59
2019-03-24T12:24:16.546Z,20.47
2019-03-24T12:25:07.945Z,18.04
2019-03-24T12:26:07.936Z,19.51
2019-03-24T12:27:07.925Z,18.01
2019-03-24T12:28:07.919Z,18.01
2019-03-24T12:29:07.915Z,18.52
2019-03-24T12:30:07.895Z,18.23
2019-03-24T12:31:07.884Z,19.15
2019-03-24T12:32:07.877Z,18.37
2019-03-24T12:33:07.866Z,17.95
2019-03-24T12:34:07.866Z,18.57
2019-03-24T12:35:07.844Z,19.27
2019-03-24T12:36:07.882Z,19.67
2019-03-24T12:37:07.826Z,18.20
2019-03-24T12:38:07.813Z,19.51
2019-03-24T12:39:07.813Z,19.72
2019-03-24T12:40:07.799Z,20.43
2019-03-24T12:41:07.871Z,20.45
2019-03-24T12:42:07.782Z,20.16
2019-03-24T12:43:18.687Z,21.36
2019-03-24T12:44:08.759Z,20.87
2019-03-24T12:45:07.795Z,21.19
2019-03-24T12:46:07.730Z,21.70
2019-03-24T12:47:07.723Z,22.23
2019-03-24T12:48:07.751Z,23.74
2019-03-24T12:49:07.710Z,23.85
2019-03-24T12:50:09.351Z,23.85
2019-03-24T12:51:07.677Z,23.25
2019-03-24T12:52:07.668Z,25.15
2019-03-24T12:53:07.657Z,22.54
2019-03-24T12:54:07.659Z,22.63